sensor_id;sensor_type;location;lat;lon;timestamp;pressure;altitude;pressure_sealevel;temperature
63113;BMP280;49206;48.020;21.378;2023-02-01T00:00:44;100340.09;;;2.07
63113;BMP280;49206;48.020;21.378;2023-02-01T00:01:47;100335.69;;;2.07
63113;BMP280;49206;48.020;21.378;2023-02-01T00:02:50;100334.38;;;2.10
63113;BMP280;49206;48.020;21.378;2023-02-01T00:03:52;100332.53;;;2.10
63113;BMP280;49206;48.020;21.378;2023-02-01T00:04:55;100334.34;;;2.15
63113;BMP280;49206;48.020;21.378;2023-02-01T00:05:58;100324.16;;;2.18
63113;BMP280;49206;48.020;21.378;2023-02-01T00:07:00;100333.25;;;2.21
63113;BMP280;49206;48.020;21.378;2023-02-01T00:08:03;100330.91;;;2.24
63113;BMP280;49206;48.020;21.378;2023-02-01T00:09:06;100331.97;;;2.18
63113;BMP280;49206;48.020;21.378;2023-02-01T00:10:09;100318.81;;;2.28
63113;BMP280;49206;48.020;21.378;2023-02-01T00:11:12;100322.50;;;2.27
63113;BMP280;49206;48.020;21.378;2023-02-01T00:12:15;100319.56;;;2.33
63113;BMP280;49206;48.020;21.378;2023-02-01T00:13:17;100313.63;;;2.28
63113;BMP280;49206;48.020;21.378;2023-02-01T00:14:20;100323.97;;;2.38
63113;BMP280;49206;48.020;21.378;2023-02-01T00:15:23;100326.06;;;2.36
63113;BMP280;49206;48.020;21.378;2023-02-01T00:16:29;100323.50;;;2.31
63113;BMP280;49206;48.020;21.378;2023-02-01T00:17:33;100324.91;;;2.24
63113;BMP280;49206;48.020;21.378;2023-02-01T00:18:35;100326.72;;;2.23
63113;BMP280;49206;48.020;21.378;2023-02-01T00:19:38;100331.16;;;2.23
63113;BMP280;49206;48.020;21.378;2023-02-01T00:20:45;100322.50;;;2.27
63113;BMP280;49206;48.020;21.378;2023-02-01T00:21:48;100323.09;;;2.24
63113;BMP280;49206;48.020;21.378;2023-02-01T00:22:51;100314.66;;;2.27
63113;BMP280;49206;48.020;21.378;2023-02-01T00:23:53;100322.50;;;2.27
63113;BMP280;49206;48.020;21.378;2023-02-01T00:24:56;100329.22;;;2.33
63113;BMP280;49206;48.020;21.378;2023-02-01T00:26:04;100320.41;;;2.29
63113;BMP280;49206;48.020;21.378;2023-02-01T00:27:07;100323.63;;;2.21
63113;BMP280;49206;48.020;21.378;2023-02-01T00:28:10;100327.28;;;2.20
63113;BMP280;49206;48.020;21.378;2023-02-01T00:29:15;100329.50;;;2.32
63113;BMP280;49206;48.020;21.378;2023-02-01T00:30:19;100325.06;;;2.32
63113;BMP280;49206;48.020;21.378;2023-02-01T00:31:22;100333.19;;;2.26
63113;BMP280;49206;48.020;21.378;2023-02-01T00:32:25;100326.47;;;2.20
63113;BMP280;49206;48.020;21.378;2023-02-01T00:33:29;100324.66;;;2.20
63113;BMP280;49206;48.020;21.378;2023-02-01T00:34:31;100319.16;;;2.22
63113;BMP280;49206;48.020;21.378;2023-02-01T00:35:35;100318.19;;;2.18
63113;BMP280;49206;48.020;21.378;2023-02-01T00:36:37;100321.53;;;2.18
63113;BMP280;49206;48.020;21.378;2023-02-01T00:37:40;100332.00;;;2.13
63113;BMP280;49206;48.020;21.378;2023-02-01T00:38:42;100333.63;;;2.04
63113;BMP280;49206;48.020;21.378;2023-02-01T00:39:45;100330.97;;;2.09
63113;BMP280;49206;48.020;21.378;2023-02-01T00:40:48;100334.09;;;2.11
63113;BMP280;49206;48.020;21.378;2023-02-01T00:41:50;100325.72;;;2.14
63113;BMP280;49206;48.020;21.378;2023-02-01T00:42:52;100326.56;;;2.10
63113;BMP280;49206;48.020;21.378;2023-02-01T00:43:55;100322.09;;;2.10
63113;BMP280;49206;48.020;21.378;2023-02-01T00:44:57;100317.44;;;2.12
63113;BMP280;49206;48.020;21.378;2023-02-01T00:46:00;100318.53;;;2.06
63113;BMP280;49206;48.020;21.378;2023-02-01T00:47:03;100311.47;;;2.07
63113;BMP280;49206;48.020;21.378;2023-02-01T00:48:05;100308.34;;;2.10
63113;BMP280;49206;48.020;21.378;2023-02-01T00:49:08;100305.00;;;1.99
63113;BMP280;49206;48.020;21.378;2023-02-01T00:50:11;100300.59;;;2.00
63113;BMP280;49206;48.020;21.378;2023-02-01T00:51:25;100296.75;;;1.87
63113;BMP280;49206;48.020;21.378;2023-02-01T00:52:29;100294.91;;;1.92
63113;BMP280;49206;48.020;21.378;2023-02-01T00:53:33;100298.03;;;1.95
63113;BMP280;49206;48.020;21.378;2023-02-01T00:54:35;100293.19;;;1.83
63113;BMP280;49206;48.020;21.378;2023-02-01T00:55:39;100301.19;;;1.87
63113;BMP280;49206;48.020;21.378;2023-02-01T00:56:41;100292.66;;;1.81
63113;BMP280;49206;48.020;21.378;2023-02-01T00:57:45;100292.22;;;1.74
63113;BMP280;49206;48.020;21.378;2023-02-01T00:58:47;100287.19;;;1.83
63113;BMP280;49206;48.020;21.378;2023-02-01T00:59:50;100286.66;;;1.81
63113;BMP280;49206;48.020;21.378;2023-02-01T01:02:05;100276.06;;;1.72
63113;BMP280;49206;48.020;21.378;2023-02-01T01:03:08;100276.59;;;1.74
63113;BMP280;49206;48.020;21.378;2023-02-01T01:04:19;100270.53;;;1.84
63113;BMP280;49206;48.020;21.378;2023-02-01T01:05:23;100273.38;;;1.82
63113;BMP280;49206;48.020;21.378;2023-02-01T01:06:29;100276.59;;;1.74
63113;BMP280;49206;48.020;21.378;2023-02-01T01:07:33;100271.88;;;1.76
63113;BMP280;49206;48.020;21.378;2023-02-01T01:08:36;100275.84;;;1.69
63113;BMP280;49206;48.020;21.378;2023-02-01T01:09:39;100275.56;;;1.70
63113;BMP280;49206;48.020;21.378;2023-02-01T01:10:43;100280.25;;;1.68
63113;BMP280;49206;48.020;21.378;2023-02-01T01:11:46;100275.88;;;1.64
63113;BMP280;49206;48.020;21.378;2023-02-01T01:12:49;100272.44;;;1.68
63113;BMP280;49206;48.020;21.378;2023-02-01T01:13:54;100277.94;;;1.62
63113;BMP280;49206;48.020;21.378;2023-02-01T01:14:57;100267.00;;;1.65
63113;BMP280;49206;48.020;21.378;2023-02-01T01:16:03;100273.78;;;1.61
63113;BMP280;49206;48.020;21.378;2023-02-01T01:17:06;100271.47;;;1.54
63113;BMP280;49206;48.020;21.378;2023-02-01T01:18:08;100260.53;;;1.57
63113;BMP280;49206;48.020;21.378;2023-02-01T01:19:10;100262.88;;;1.59
63113;BMP280;49206;48.020;21.378;2023-02-01T01:20:14;100267.53;;;1.62
63113;BMP280;49206;48.020;21.378;2023-02-01T01:21:17;100263.31;;;1.71
63113;BMP280;49206;48.020;21.378;2023-02-01T01:22:19;100267.22;;;1.68
63113;BMP280;49206;48.020;21.378;2023-02-01T01:23:22;100267.31;;;1.58
63113;BMP280;49206;48.020;21.378;2023-02-01T01:24:24;100265.53;;;1.54
63113;BMP280;49206;48.020;21.378;2023-02-01T01:25:27;100257.97;;;1.52
63113;BMP280;49206;48.020;21.378;2023-02-01T01:26:30;100251.22;;;1.51
63113;BMP280;49206;48.020;21.378;2023-02-01T01:27:32;100251.75;;;1.48
63113;BMP280;49206;48.020;21.378;2023-02-01T01:28:35;100241.88;;;1.45
63113;BMP280;49206;48.020;21.378;2023-02-01T01:29:37;100240.22;;;1.59
63113;BMP280;49206;48.020;21.378;2023-02-01T01:30:40;100231.81;;;1.72
63113;BMP280;49206;48.020;21.378;2023-02-01T01:31:43;100243.25;;;1.76
63113;BMP280;49206;48.020;21.378;2023-02-01T01:32:45;100230.81;;;1.68
63113;BMP280;49206;48.020;21.378;2023-02-01T01:33:49;100229.81;;;1.59
63113;BMP280;49206;48.020;21.378;2023-02-01T01:34:52;100232.34;;;1.69
63113;BMP280;49206;48.020;21.378;2023-02-01T01:35:55;100226.91;;;1.66
63113;BMP280;49206;48.020;21.378;2023-02-01T01:36:58;100225.06;;;1.71
63113;BMP280;49206;48.020;21.378;2023-02-01T01:38:01;100213.13;;;1.70
63113;BMP280;49206;48.020;21.378;2023-02-01T01:39:03;100201.72;;;1.61
63113;BMP280;49206;48.020;21.378;2023-02-01T01:40:07;100200.06;;;1.75
63113;BMP280;49206;48.020;21.378;2023-02-01T01:41:14;100208.44;;;1.67
63113;BMP280;49206;48.020;21.378;2023-02-01T01:42:17;100206.19;;;1.56
63113;BMP280;49206;48.020;21.378;2023-02-01T01:43:20;100204.78;;;1.68
63113;BMP280;49206;48.020;21.378;2023-02-01T01:44:57;100202.22;;;1.63
63113;BMP280;49206;48.020;21.378;2023-02-01T01:46:01;100198.34;;;1.61
63113;BMP280;49206;48.020;21.378;2023-02-01T01:47:03;100201.19;;;1.59
63113;BMP280;49206;48.020;21.378;2023-02-01T01:48:28;100201.13;;;1.74
63113;BMP280;49206;48.020;21.378;2023-02-01T01:49:32;100209.09;;;1.83
63113;BMP280;49206;48.020;21.378;2023-02-01T01:50:40;100217.97;;;1.82
63113;BMP280;49206;48.020;21.378;2023-02-01T01:51:56;100212.25;;;1.80
63113;BMP280;49206;48.020;21.378;2023-02-01T01:53:03;100210.66;;;1.84
63113;BMP280;49206;48.020;21.378;2023-02-01T01:55:13;100209.94;;;1.73
63113;BMP280;49206;48.020;21.378;2023-02-01T01:56:17;100207.09;;;1.75
63113;BMP280;49206;48.020;21.378;2023-02-01T01:57:29;100205.31;;;1.70
63113;BMP280;49206;48.020;21.378;2023-02-01T01:58:34;100198.25;;;1.71
63113;BMP280;49206;48.020;21.378;2023-02-01T01:59:37;100202.09;;;1.83
63113;BMP280;49206;48.020;21.378;2023-02-01T02:00:41;100199.50;;;1.78
63113;BMP280;49206;48.020;21.378;2023-02-01T02:01:43;100202.56;;;1.85
63113;BMP280;49206;48.020;21.378;2023-02-01T02:02:49;100203.13;;;1.82
63113;BMP280;49206;48.020;21.378;2023-02-01T02:03:55;100201.50;;;1.86
63113;BMP280;49206;48.020;21.378;2023-02-01T02:04:58;100197.91;;;1.82
63113;BMP280;49206;48.020;21.378;2023-02-01T02:06:30;100196.41;;;1.76
63113;BMP280;49206;48.020;21.378;2023-02-01T02:07:40;100187.63;;;1.67
63113;BMP280;49206;48.020;21.378;2023-02-01T02:08:44;100188.88;;;1.75
63113;BMP280;49206;48.020;21.378;2023-02-01T02:09:46;100184.50;;;1.70
63113;BMP280;49206;48.020;21.378;2023-02-01T02:11:01;100177.97;;;1.73
63113;BMP280;49206;48.020;21.378;2023-02-01T02:12:04;100176.88;;;1.79
63113;BMP280;49206;48.020;21.378;2023-02-01T02:13:06;100188.44;;;1.91
63113;BMP280;49206;48.020;21.378;2023-02-01T02:14:11;100195.72;;;1.94
63113;BMP280;49206;48.020;21.378;2023-02-01T02:15:16;100195.31;;;1.82
63113;BMP280;49206;48.020;21.378;2023-02-01T02:16:21;100195.75;;;1.89
63113;BMP280;49206;48.020;21.378;2023-02-01T02:20:17;100194.44;;;1.92
63113;BMP280;49206;48.020;21.378;2023-02-01T02:21:30;100193.31;;;1.98
63113;BMP280;49206;48.020;21.378;2023-02-01T02:23:10;100195.97;;;1.92
63113;BMP280;49206;48.020;21.378;2023-02-01T02:24:39;100193.81;;;2.05
63113;BMP280;49206;48.020;21.378;2023-02-01T02:27:21;100203.34;;;2.14
63113;BMP280;49206;48.020;21.378;2023-02-01T02:31:22;100197.00;;;1.97
63113;BMP280;49206;48.020;21.378;2023-02-01T02:33:25;100192.00;;;2.00
63113;BMP280;49206;48.020;21.378;2023-02-01T02:37:01;100177.00;;;1.87
63113;BMP280;49206;48.020;21.378;2023-02-01T02:39:25;100177.09;;;1.82
63113;BMP280;49206;48.020;21.378;2023-02-01T02:40:37;100190.31;;;1.86
63113;BMP280;49206;48.020;21.378;2023-02-01T02:42:07;100201.22;;;1.88
63113;BMP280;49206;48.020;21.378;2023-02-01T02:43:52;100207.44;;;1.92
63113;BMP280;49206;48.020;21.378;2023-02-01T02:45:28;100204.56;;;1.93
63113;BMP280;49206;48.020;21.378;2023-02-01T02:46:52;100196.88;;;1.83
63113;BMP280;49206;48.020;21.378;2023-02-01T02:48:24;100195.22;;;1.92
63113;BMP280;49206;48.020;21.378;2023-02-01T02:49:36;100188.44;;;1.91
63113;BMP280;49206;48.020;21.378;2023-02-01T02:50:48;100191.09;;;1.86
63113;BMP280;49206;48.020;21.378;2023-02-01T02:52:18;100184.63;;;1.84
63113;BMP280;49206;48.020;21.378;2023-02-01T02:55:09;100189.59;;;1.80
63113;BMP280;49206;48.020;21.378;2023-02-01T02:56:12;100189.44;;;1.72
63113;BMP280;49206;48.020;21.378;2023-02-01T02:57:40;100178.22;;;1.71
63113;BMP280;49206;48.020;21.378;2023-02-01T02:59:03;100188.47;;;1.86
63113;BMP280;49206;48.020;21.378;2023-02-01T03:00:29;100190.72;;;1.69
63113;BMP280;49206;48.020;21.378;2023-02-01T03:01:52;100193.91;;;1.61
63113;BMP280;49206;48.020;21.378;2023-02-01T03:03:13;100187.97;;;1.56
63113;BMP280;49206;48.020;21.378;2023-02-01T03:04:34;100184.03;;;1.58
63113;BMP280;49206;48.020;21.378;2023-02-01T03:05:43;100178.50;;;1.70
63113;BMP280;49206;48.020;21.378;2023-02-01T03:06:47;100185.50;;;1.69
63113;BMP280;49206;48.020;21.378;2023-02-01T03:08:18;100190.41;;;1.76
63113;BMP280;49206;48.020;21.378;2023-02-01T03:09:34;100188.88;;;1.75
63113;BMP280;49206;48.020;21.378;2023-02-01T03:10:43;100177.88;;;1.83
63113;BMP280;49206;48.020;21.378;2023-02-01T03:11:51;100173.13;;;1.84
63113;BMP280;49206;48.020;21.378;2023-02-01T03:13:23;100164.84;;;1.83
63113;BMP280;49206;48.020;21.378;2023-02-01T03:14:28;100173.47;;;1.83
63113;BMP280;49206;48.020;21.378;2023-02-01T03:17:04;100161.19;;;1.84
63113;BMP280;49206;48.020;21.378;2023-02-01T03:18:16;100152.13;;;1.81
63113;BMP280;49206;48.020;21.378;2023-02-01T03:19:24;100146.13;;;1.81
63113;BMP280;49206;48.020;21.378;2023-02-01T03:20:29;100144.84;;;1.78
63113;BMP280;49206;48.020;21.378;2023-02-01T03:21:50;100137.66;;;1.70
63113;BMP280;49206;48.020;21.378;2023-02-01T03:22:53;100135.72;;;1.81
63113;BMP280;49206;48.020;21.378;2023-02-01T03:24:02;100131.84;;;1.78
63113;BMP280;49206;48.020;21.378;2023-02-01T03:25:10;100136.31;;;1.73
63113;BMP280;49206;48.020;21.378;2023-02-01T03:26:17;100144.94;;;1.68
63113;BMP280;49206;48.020;21.378;2023-02-01T03:27:30;100160.19;;;1.80
63113;BMP280;49206;48.020;21.378;2023-02-01T03:28:36;100163.50;;;1.85
63113;BMP280;49206;48.020;21.378;2023-02-01T03:29:46;100168.19;;;1.88
63113;BMP280;49206;48.020;21.378;2023-02-01T03:30:51;100167.59;;;1.91
63113;BMP280;49206;48.020;21.378;2023-02-01T03:31:54;100152.13;;;1.81
63113;BMP280;49206;48.020;21.378;2023-02-01T03:32:59;100147.34;;;1.88
63113;BMP280;49206;48.020;21.378;2023-02-01T03:34:05;100134.81;;;1.90
63113;BMP280;49206;48.020;21.378;2023-02-01T03:35:08;100137.69;;;1.88
63113;BMP280;49206;48.020;21.378;2023-02-01T03:37:30;100146.84;;;1.86
63113;BMP280;49206;48.020;21.378;2023-02-01T03:39:53;100156.00;;;1.84
63113;BMP280;49206;48.020;21.378;2023-02-01T03:41:10;100156.44;;;1.91
63113;BMP280;49206;48.020;21.378;2023-02-01T03:42:21;100168.63;;;1.95
63113;BMP280;49206;48.020;21.378;2023-02-01T03:43:29;100178.53;;;1.93
63113;BMP280;49206;48.020;21.378;2023-02-01T03:45:00;100180.41;;;1.88
63113;BMP280;49206;48.020;21.378;2023-02-01T03:46:08;100181.16;;;1.93
63113;BMP280;49206;48.020;21.378;2023-02-01T03:48:20;100185.34;;;1.89
63113;BMP280;49206;48.020;21.378;2023-02-01T03:49:32;100198.53;;;1.98
63113;BMP280;49206;48.020;21.378;2023-02-01T03:50:42;100188.16;;;1.92
63113;BMP280;49206;48.020;21.378;2023-02-01T03:51:46;100181.53;;;1.82
63113;BMP280;49206;48.020;21.378;2023-02-01T03:52:56;100186.47;;;1.83
63113;BMP280;49206;48.020;21.378;2023-02-01T03:54:02;100187.72;;;1.86
63113;BMP280;49206;48.020;21.378;2023-02-01T03:55:07;100180.25;;;1.79
63113;BMP280;49206;48.020;21.378;2023-02-01T03:56:13;100185.59;;;1.88
63113;BMP280;49206;48.020;21.378;2023-02-01T03:57:21;100193.69;;;1.86
63113;BMP280;49206;48.020;21.378;2023-02-01T03:58:26;100183.66;;;1.75
63113;BMP280;49206;48.020;21.378;2023-02-01T03:59:28;100183.66;;;1.75
63113;BMP280;49206;48.020;21.378;2023-02-01T04:00:31;100184.44;;;1.75
63113;BMP280;49206;48.020;21.378;2023-02-01T04:01:34;100181.63;;;1.67
63113;BMP280;49206;48.020;21.378;2023-02-01T04:02:37;100172.09;;;1.57
63113;BMP280;49206;48.020;21.378;2023-02-01T04:03:39;100177.00;;;1.64
63113;BMP280;49206;48.020;21.378;2023-02-01T04:04:42;100177.00;;;1.64
63113;BMP280;49206;48.020;21.378;2023-02-01T04:05:48;100174.16;;;1.60
63113;BMP280;49206;48.020;21.378;2023-02-01T04:06:51;100182.00;;;1.50
63113;BMP280;49206;48.020;21.378;2023-02-01T04:07:54;100181.06;;;1.36
63113;BMP280;49206;48.020;21.378;2023-02-01T04:08:57;100181.03;;;1.41
63113;BMP280;49206;48.020;21.378;2023-02-01T04:09:59;100181.31;;;1.40
63113;BMP280;49206;48.020;21.378;2023-02-01T04:11:02;100177.19;;;1.33
63113;BMP280;49206;48.020;21.378;2023-02-01T04:12:04;100183.03;;;1.54
63113;BMP280;49206;48.020;21.378;2023-02-01T04:13:08;100178.38;;;1.51
63113;BMP280;49206;48.020;21.378;2023-02-01T04:14:10;100183.19;;;1.34
63113;BMP280;49206;48.020;21.378;2023-02-01T04:15:13;100177.28;;;1.24
63113;BMP280;49206;48.020;21.378;2023-02-01T04:16:15;100167.19;;;1.17
63113;BMP280;49206;48.020;21.378;2023-02-01T04:17:17;100171.63;;;1.12
63113;BMP280;49206;48.020;21.378;2023-02-01T04:18:20;100167.22;;;1.07
63113;BMP280;49206;48.020;21.378;2023-02-01T04:19:23;100172.69;;;1.06
63113;BMP280;49206;48.020;21.378;2023-02-01T04:20:25;100176.38;;;1.00
63113;BMP280;49206;48.020;21.378;2023-02-01T04:21:28;100174.56;;;0.95
63113;BMP280;49206;48.020;21.378;2023-02-01T04:22:31;100176.13;;;0.96
63113;BMP280;49206;48.020;21.378;2023-02-01T04:23:33;100174.59;;;0.90
63113;BMP280;49206;48.020;21.378;2023-02-01T04:24:36;100173.53;;;0.91
63113;BMP280;49206;48.020;21.378;2023-02-01T04:25:38;100170.72;;;0.88
63113;BMP280;49206;48.020;21.378;2023-02-01T04:26:41;100182.66;;;0.83
63113;BMP280;49206;48.020;21.378;2023-02-01T04:27:43;100180.38;;;0.72
63113;BMP280;49206;48.020;21.378;2023-02-01T04:28:46;100181.19;;;0.68
63113;BMP280;49206;48.020;21.378;2023-02-01T04:29:52;100179.38;;;0.58
63113;BMP280;49206;48.020;21.378;2023-02-01T04:30:57;100175.53;;;0.50
63113;BMP280;49206;48.020;21.378;2023-02-01T04:31:59;100171.63;;;0.48
63113;BMP280;49206;48.020;21.378;2023-02-01T04:33:02;100173.72;;;0.41
63113;BMP280;49206;48.020;21.378;2023-02-01T04:34:07;100176.88;;;0.33
63113;BMP280;49206;48.020;21.378;2023-02-01T04:35:09;100168.03;;;0.34
63113;BMP280;49206;48.020;21.378;2023-02-01T04:36:13;100170.91;;;0.32
63113;BMP280;49206;48.020;21.378;2023-02-01T04:37:16;100168.59;;;0.26
63113;BMP280;49206;48.020;21.378;2023-02-01T04:38:18;100159.53;;;0.18
63113;BMP280;49206;48.020;21.378;2023-02-01T04:39:21;100160.03;;;0.20
63113;BMP280;49206;48.020;21.378;2023-02-01T04:40:23;100155.13;;;0.19
63113;BMP280;49206;48.020;21.378;2023-02-01T04:41:26;100151.25;;;0.12
63113;BMP280;49206;48.020;21.378;2023-02-01T04:42:29;100146.59;;;0.03
63113;BMP280;49206;48.020;21.378;2023-02-01T04:43:32;100156.16;;;0.08
63113;BMP280;49206;48.020;21.378;2023-02-01T04:44:34;100154.13;;;0.00
63113;BMP280;49206;48.020;21.378;2023-02-01T04:45:38;100165.25;;;0.05
63113;BMP280;49206;48.020;21.378;2023-02-01T04:46:41;100166.81;;;0.01
63113;BMP280;49206;48.020;21.378;2023-02-01T04:47:44;100160.34;;;-0.06
63113;BMP280;49206;48.020;21.378;2023-02-01T04:48:46;100160.34;;;-0.11
63113;BMP280;49206;48.020;21.378;2023-02-01T04:49:49;100159.31;;;-0.10
63113;BMP280;49206;48.020;21.378;2023-02-01T04:50:51;100162.94;;;-0.11
63113;BMP280;49206;48.020;21.378;2023-02-01T04:51:54;100158.81;;;-0.12
63113;BMP280;49206;48.020;21.378;2023-02-01T04:52:56;100165.53;;;-0.06
63113;BMP280;49206;48.020;21.378;2023-02-01T04:53:59;100158.78;;;-0.07
63113;BMP280;49206;48.020;21.378;2023-02-01T04:55:01;100166.34;;;-0.11
63113;BMP280;49206;48.020;21.378;2023-02-01T04:56:05;100172.28;;;-0.10
63113;BMP280;49206;48.020;21.378;2023-02-01T04:57:08;100169.94;;;-0.12
63113;BMP280;49206;48.020;21.378;2023-02-01T04:58:10;100169.94;;;-0.22
63113;BMP280;49206;48.020;21.378;2023-02-01T04:59:13;100161.66;;;-0.24
63113;BMP280;49206;48.020;21.378;2023-02-01T05:00:16;100161.91;;;-0.25
63113;BMP280;49206;48.020;21.378;2023-02-01T05:01:18;100173.34;;;-0.26
63113;BMP280;49206;48.020;21.378;2023-02-01T05:02:21;100168.91;;;-0.31
63113;BMP280;49206;48.020;21.378;2023-02-01T05:03:23;100167.06;;;-0.35
63113;BMP280;49206;48.020;21.378;2023-02-01T05:04:26;100166.56;;;-0.32
63113;BMP280;49206;48.020;21.378;2023-02-01T05:05:29;100162.91;;;-0.46
63113;BMP280;49206;48.020;21.378;2023-02-01T05:06:31;100162.16;;;-0.37
63113;BMP280;49206;48.020;21.378;2023-02-01T05:07:34;100173.31;;;-0.36
63113;BMP280;49206;48.020;21.378;2023-02-01T05:08:36;100167.59;;;-0.43
63113;BMP280;49206;48.020;21.378;2023-02-01T05:09:40;100169.13;;;-0.42
63113;BMP280;49206;48.020;21.378;2023-02-01T05:10:42;100168.63;;;-0.44
63113;BMP280;49206;48.020;21.378;2023-02-01T05:11:44;100165.00;;;-0.43
63113;BMP280;49206;48.020;21.378;2023-02-01T05:13:05;100162.91;;;-0.51
63113;BMP280;49206;48.020;21.378;2023-02-01T05:14:26;100158.25;;;-0.59
63113;BMP280;49206;48.020;21.378;2023-02-01T05:15:29;100158.50;;;-0.66
63113;BMP280;49206;48.020;21.378;2023-02-01T05:16:33;100156.66;;;-0.70
63113;BMP280;49206;48.020;21.378;2023-02-01T05:17:35;100150.47;;;-0.64
63113;BMP280;49206;48.020;21.378;2023-02-01T05:18:38;100145.78;;;-0.67
63113;BMP280;49206;48.020;21.378;2023-02-01T05:19:40;100144.50;;;-0.65
63113;BMP280;49206;48.020;21.378;2023-02-01T05:20:43;100138.81;;;-0.62
63113;BMP280;49206;48.020;21.378;2023-02-01T05:21:45;100139.56;;;-0.71
63113;BMP280;49206;48.020;21.378;2023-02-01T05:22:47;100139.56;;;-0.71
63113;BMP280;49206;48.020;21.378;2023-02-01T05:23:50;100134.63;;;-0.68
63113;BMP280;49206;48.020;21.378;2023-02-01T05:25:11;100129.44;;;-0.73
63113;BMP280;49206;48.020;21.378;2023-02-01T05:26:13;100130.25;;;-0.72
63113;BMP280;49206;48.020;21.378;2023-02-01T05:27:15;100131.53;;;-0.85
63113;BMP280;49206;48.020;21.378;2023-02-01T05:28:18;100135.38;;;-0.92
63113;BMP280;49206;48.020;21.378;2023-02-01T05:29:20;100125.28;;;-0.89
63113;BMP280;49206;48.020;21.378;2023-02-01T05:30:24;100130.72;;;-0.85
63113;BMP280;49206;48.020;21.378;2023-02-01T05:31:26;100131.78;;;-0.86
63113;BMP280;49206;48.020;21.378;2023-02-01T05:32:29;100128.16;;;-0.85
63113;BMP280;49206;48.020;21.378;2023-02-01T05:33:32;100123.75;;;-0.85
63113;BMP280;49206;48.020;21.378;2023-02-01T05:34:34;100128.66;;;-0.88
63113;BMP280;49206;48.020;21.378;2023-02-01T05:35:36;100128.66;;;-0.88
63113;BMP280;49206;48.020;21.378;2023-02-01T05:36:39;100129.69;;;-0.94
63113;BMP280;49206;48.020;21.378;2023-02-01T05:37:42;100124.50;;;-0.89
63113;BMP280;49206;48.020;21.378;2023-02-01T05:38:44;100132.53;;;-0.91
63113;BMP280;49206;48.020;21.378;2023-02-01T05:39:47;100134.88;;;-0.94
63113;BMP280;49206;48.020;21.378;2023-02-01T05:40:49;100132.53;;;-0.96
63113;BMP280;49206;48.020;21.378;2023-02-01T05:41:51;100136.41;;;-0.93
63113;BMP280;49206;48.020;21.378;2023-02-01T05:42:54;100135.38;;;-0.97
63113;BMP280;49206;48.020;21.378;2023-02-01T05:43:56;100135.34;;;-1.02
63113;BMP280;49206;48.020;21.378;2023-02-01T05:44:59;100130.72;;;-1.00
63113;BMP280;49206;48.020;21.378;2023-02-01T05:46:01;100144.41;;;-1.05
63113;BMP280;49206;48.020;21.378;2023-02-01T05:47:04;100150.91;;;-1.02
63113;BMP280;49206;48.020;21.378;2023-02-01T05:48:07;100149.34;;;-1.03
63113;BMP280;49206;48.020;21.378;2023-02-01T05:49:09;100152.44;;;-1.01
63113;BMP280;49206;48.020;21.378;2023-02-01T05:50:12;100153.00;;;-0.99
63113;BMP280;49206;48.020;21.378;2023-02-01T05:51:14;100160.75;;;-0.99
63113;BMP280;49206;48.020;21.378;2023-02-01T05:52:16;100160.25;;;-0.96
63113;BMP280;49206;48.020;21.378;2023-02-01T05:53:21;100168.53;;;-1.04
63113;BMP280;49206;48.020;21.378;2023-02-01T05:54:24;100159.16;;;-1.10
63113;BMP280;49206;48.020;21.378;2023-02-01T05:55:26;100160.50;;;-1.03
63113;BMP280;49206;48.020;21.378;2023-02-01T05:56:29;100172.66;;;-1.03
63113;BMP280;49206;48.020;21.378;2023-02-01T05:57:32;100173.44;;;-1.03
63113;BMP280;49206;48.020;21.378;2023-02-01T05:58:36;100179.63;;;-1.09
63113;BMP280;49206;48.020;21.378;2023-02-01T05:59:39;100187.09;;;-1.27
63113;BMP280;49206;48.020;21.378;2023-02-01T06:00:43;100186.28;;;-1.28
63113;BMP280;49206;48.020;21.378;2023-02-01T06:01:45;100187.28;;;-1.34
63113;BMP280;49206;48.020;21.378;2023-02-01T06:02:48;100198.94;;;-1.36
63113;BMP280;49206;48.020;21.378;2023-02-01T06:03:50;100195.38;;;-1.25
63113;BMP280;49206;48.020;21.378;2023-02-01T06:04:53;100204.97;;;-1.26
63113;BMP280;49206;48.020;21.378;2023-02-01T06:05:56;100211.97;;;-1.16
63113;BMP280;49206;48.020;21.378;2023-02-01T06:07:00;100213.41;;;-0.79
63113;BMP280;49206;48.020;21.378;2023-02-01T06:08:03;100217.06;;;-0.70
63113;BMP280;49206;48.020;21.378;2023-02-01T06:09:30;100216.56;;;-0.62
63113;BMP280;49206;48.020;21.378;2023-02-01T06:10:33;100213.94;;;-0.72
63113;BMP280;49206;48.020;21.378;2023-02-01T06:11:36;100211.88;;;-0.75
63113;BMP280;49206;48.020;21.378;2023-02-01T06:12:39;100210.03;;;-0.79
63113;BMP280;49206;48.020;21.378;2023-02-01T06:13:41;100218.06;;;-0.81
63113;BMP280;49206;48.020;21.378;2023-02-01T06:14:43;100212.38;;;-0.78
63113;BMP280;49206;48.020;21.378;2023-02-01T06:15:47;100209.03;;;-0.68
63113;BMP280;49206;48.020;21.378;2023-02-01T06:16:50;100206.72;;;-0.70
63113;BMP280;49206;48.020;21.378;2023-02-01T06:17:52;100213.69;;;-0.65
63113;BMP280;49206;48.020;21.378;2023-02-01T06:18:55;100225.91;;;-0.66
63113;BMP280;49206;48.020;21.378;2023-02-01T06:19:57;100224.84;;;-0.65
63113;BMP280;49206;48.020;21.378;2023-02-01T06:21:00;100231.84;;;-0.65
63113;BMP280;49206;48.020;21.378;2023-02-01T06:22:03;100232.63;;;-0.65
63113;BMP280;49206;48.020;21.378;2023-02-01T06:23:08;100231.34;;;-0.67
63113;BMP280;49206;48.020;21.378;2023-02-01T06:24:10;100238.31;;;-0.68
63113;BMP280;49206;48.020;21.378;2023-02-01T06:25:13;100240.63;;;-0.76
63113;BMP280;49206;48.020;21.378;2023-02-01T06:26:15;100243.22;;;-0.81
63113;BMP280;49206;48.020;21.378;2023-02-01T06:27:20;100242.41;;;-0.82
63113;BMP280;49206;48.020;21.378;2023-02-01T06:28:23;100246.56;;;-0.81
63113;BMP280;49206;48.020;21.378;2023-02-01T06:29:25;100253.56;;;-0.86
63113;BMP280;49206;48.020;21.378;2023-02-01T06:30:28;100251.22;;;-0.83
63113;BMP280;49206;48.020;21.378;2023-02-01T06:31:33;100248.41;;;-0.81
63113;BMP280;49206;48.020;21.378;2023-02-01T06:32:35;100251.50;;;-0.79
63113;BMP280;49206;48.020;21.378;2023-02-01T06:33:38;100242.44;;;-0.77